createdAt,value
2022-08-03T00:02:16.774Z,99461.78
2022-08-03T00:04:43.992Z,99465.44
2022-08-03T00:07:11.067Z,99465.41
2022-08-03T00:09:37.852Z,99460.56
2022-08-03T00:12:07.651Z,99454.06
2022-08-03T00:14:34.668Z,99454.88
2022-08-03T00:17:01.647Z,99456.88
2022-08-03T00:19:28.635Z,99456.09
2022-08-03T00:21:55.397Z,99464.19
2022-08-03T00:24:22.348Z,99469.03
2022-08-03T00:26:49.095Z,99469.06
2022-08-03T00:29:20.532Z,99460.97
2022-08-03T00:31:52.799Z,99463.00
2022-08-03T00:34:34.590Z,99465.41
2022-08-03T00:37:13.276Z,99467.44
2022-08-03T00:39:40.966Z,99465.44
2022-08-03T00:42:07.861Z,99462.19
2022-08-03T00:44:43.217Z,99456.53
2022-08-03T00:47:10.981Z,99458.53
2022-08-03T00:49:39.907Z,99458.97
2022-08-03T00:52:11.673Z,99457.31
2022-08-03T00:54:39.092Z,99458.97
2022-08-03T00:57:06.658Z,99458.56
2022-08-03T00:59:33.735Z,99456.94
2022-08-03T01:02:00.606Z,99451.25
2022-08-03T01:04:28.177Z,99456.50
2022-08-03T01:07:17.608Z,99456.09
2022-08-03T01:10:12.385Z,99449.63
2022-08-03T01:12:48.989Z,99447.59
2022-08-03T01:15:46.303Z,99457.69
2022-08-03T01:18:22.462Z,99454.06
2022-08-03T01:20:55.965Z,99456.47
2022-08-03T01:23:55.604Z,99448.41
2022-08-03T01:26:25.457Z,99449.22
2022-08-03T01:29:21.432Z,99448.03
2022-08-03T01:33:02.686Z,99443.97
2022-08-03T01:35:02.551Z,99443.56
2022-08-03T01:37:39.891Z,99444.78
2022-08-03T01:40:09.708Z,99458.13
2022-08-03T01:42:40.137Z,99450.84
2022-08-03T01:45:10.886Z,99452.44
2022-08-03T01:47:39.422Z,99449.63
2022-08-03T01:50:09.003Z,99458.56
2022-08-03T01:52:40.528Z,99458.56
2022-08-03T01:55:11.798Z,99448.44
2022-08-03T01:58:04.694Z,99453.28
2022-08-03T02:00:28.512Z,99467.41
2022-08-03T02:02:56.774Z,99467.00
2022-08-03T02:05:24.890Z,99463.75
2022-08-03T02:07:52.640Z,99462.94
2022-08-03T02:10:34.819Z,99473.06
2022-08-03T02:13:04.167Z,99472.66
2022-08-03T02:15:34.108Z,99467.00
2022-08-03T02:18:05.298Z,99477.50
2022-08-03T02:20:36.453Z,99473.06
2022-08-03T02:23:03.676Z,99471.03
2022-08-03T02:25:32.340Z,99475.47
2022-08-03T02:28:06.347Z,99476.69
2022-08-03T02:30:39.271Z,99473.44
2022-08-03T02:33:10.288Z,99473.88
2022-08-03T02:35:38.008Z,99483.16
2022-08-03T02:38:07.815Z,99475.91
2022-08-03T02:40:36.447Z,99487.63
2022-08-03T02:43:08.435Z,99479.16
2022-08-03T02:45:42.545Z,99485.63
2022-08-03T02:48:16.042Z,99477.13
2022-08-03T02:50:45.235Z,99468.66
2022-08-03T02:53:14.236Z,99481.19
2022-08-03T02:55:42.959Z,99480.78
2022-08-03T02:58:13.860Z,99481.56
2022-08-03T03:00:44.304Z,99477.13
2022-08-03T03:03:12.324Z,99480.78
2022-08-03T03:05:55.377Z,99484.00
2022-08-03T03:08:28.202Z,99474.72
2022-08-03T03:10:59.984Z,99485.63
2022-08-03T03:13:29.043Z,99486.81
2022-08-03T03:15:59.722Z,99488.88
2022-08-03T03:18:29.201Z,99492.91
2022-08-03T03:20:58.130Z,99499.38
2022-08-03T03:23:27.026Z,99487.25
2022-08-03T03:25:56.266Z,99488.03
2022-08-03T03:28:25.116Z,99485.59
2022-08-03T03:30:53.442Z,99484.78
2022-08-03T03:33:21.979Z,99489.19
2022-08-03T03:35:49.747Z,99496.88
2022-08-03T03:38:16.613Z,99495.63
2022-08-03T03:40:44.138Z,99497.22
2022-08-03T03:43:12.284Z,99500.00
2022-08-03T03:45:42.536Z,99499.63
2022-08-03T03:48:09.359Z,99494.38
2022-08-03T03:50:37.566Z,99499.25
2022-08-03T03:53:05.148Z,99492.38
2022-08-03T03:55:59.086Z,99500.06
2022-08-03T03:58:27.249Z,99504.88
2022-08-03T04:00:54.213Z,99496.75
2022-08-03T04:03:21.253Z,99499.19
2022-08-03T04:06:06.504Z,99498.31
2022-08-03T04:08:52.108Z,99506.41
2022-08-03T04:11:42.314Z,99501.88
2022-08-03T04:14:16.981Z,99511.59
2022-08-03T04:16:49.279Z,99506.25
2022-08-03T04:19:23.580Z,99505.00
2022-08-03T04:21:53.213Z,99515.47
2022-08-03T04:24:26.972Z,99520.72
2022-08-03T04:26:56.062Z,99508.06
2022-08-03T04:29:26.121Z,99507.63
2022-08-03T04:31:55.004Z,99514.44
2022-08-03T04:34:22.037Z,99518.47
2022-08-03T04:36:53.094Z,99515.19
2022-08-03T04:39:29.596Z,99506.25
2022-08-03T04:42:08.335Z,99514.72
2022-08-03T04:44:46.704Z,99510.22
2022-08-03T04:47:14.090Z,99513.78
2022-08-03T04:49:41.303Z,99513.72
2022-08-03T04:52:10.109Z,99512.03
2022-08-03T04:54:42.216Z,99516.00
2022-08-03T04:57:10.332Z,99514.31
2022-08-03T04:59:54.757Z,99518.66
2022-08-03T05:02:24.935Z,99511.72
2022-08-03T05:04:52.127Z,99513.31
2022-08-03T05:07:24.142Z,99514.84
2022-08-03T05:10:01.380Z,99511.91
2022-08-03T05:12:33.744Z,99510.97
2022-08-03T05:15:01.405Z,99505.13
2022-08-03T05:17:30.743Z,99517.56
2022-08-03T05:19:57.593Z,99520.63
2022-08-03T05:22:24.668Z,99525.84
2022-08-03T05:24:51.576Z,99516.28
2022-08-03T05:27:19.636Z,99524.06
2022-08-03T05:29:47.427Z,99521.25
2022-08-03T05:32:14.756Z,99522.53
2022-08-03T05:34:41.683Z,99518.00
2022-08-03T05:37:08.805Z,99518.75
2022-08-03T05:39:35.983Z,99521.09
2022-08-03T05:42:03.031Z,99523.06
2022-08-03T05:44:32.367Z,99512.75
2022-08-03T05:46:59.539Z,99520.44
2022-08-03T05:49:26.441Z,99526.16
2022-08-03T05:52:00.185Z,99526.75
2022-08-03T05:54:57.249Z,99524.56
2022-08-03T05:57:26.064Z,99525.38
2022-08-03T05:59:54.675Z,99524.97
2022-08-03T06:02:26.425Z,99528.16
2022-08-03T06:04:55.665Z,99519.31
2022-08-03T06:07:22.916Z,99523.91
2022-08-03T06:10:34.197Z,99517.84
2022-08-03T06:12:37.459Z,99527.09
2022-08-03T06:18:08.519Z,99525.34
2022-08-03T06:20:35.481Z,99520.41
2022-08-03T06:23:02.948Z,99522.16
2022-08-03T06:25:30.969Z,99520.06
2022-08-03T06:27:57.856Z,99523.31
2022-08-03T06:30:25.014Z,99530.75
2022-08-03T06:32:52.569Z,99536.47
2022-08-03T06:35:20.174Z,99535.53
2022-08-03T06:37:49.619Z,99534.53
2022-08-03T06:40:24.456Z,99531.22
2022-08-03T06:42:51.703Z,99533.38
2022-08-03T06:45:18.702Z,99533.13
2022-08-03T06:47:45.649Z,99536.38
2022-08-03T06:50:16.950Z,99545.66
2022-08-03T06:52:45.454Z,99536.28
2022-08-03T06:55:12.513Z,99534.88
2022-08-03T06:57:39.291Z,99543.50
2022-08-03T07:00:11.838Z,99539.56
2022-08-03T07:02:40.151Z,99539.03
2022-08-03T07:05:08.823Z,99529.31
2022-08-03T07:07:35.888Z,99529.72
2022-08-03T07:10:03.038Z,99534.88
2022-08-03T07:12:31.981Z,99533.03
2022-08-03T07:15:02.702Z,99537.06
2022-08-03T07:17:36.957Z,99534.56
2022-08-03T07:20:06.795Z,99537.19
2022-08-03T07:22:34.420Z,99532.97
2022-08-03T07:25:01.394Z,99555.13
2022-08-03T07:27:30.602Z,99547.84
2022-08-03T07:29:58.797Z,99548.53
2022-08-03T07:32:26.110Z,99545.41
2022-08-03T07:34:58.318Z,99549.53
2022-08-03T07:37:27.277Z,99545.13
2022-08-03T07:39:54.110Z,99548.50
2022-08-03T07:42:20.984Z,99547.28
2022-08-03T07:44:47.883Z,99543.94
2022-08-03T07:47:35.053Z,99543.28
2022-08-03T07:50:02.621Z,99548.81
2022-08-03T07:52:48.141Z,99554.56
2022-08-03T07:55:19.078Z,99546.81
2022-08-03T07:57:46.001Z,99552.38
2022-08-03T08:00:17.224Z,99558.56
2022-08-03T08:02:45.028Z,99560.75
2022-08-03T08:05:17.233Z,99557.47
2022-08-03T08:07:44.099Z,99575.66
2022-08-03T08:10:17.707Z,99553.81
2022-08-03T08:12:44.619Z,99550.41
2022-08-03T08:15:11.483Z,99565.75
2022-08-03T08:17:50.266Z,99558.81
2022-08-03T08:20:30.797Z,99555.59
2022-08-03T08:23:27.585Z,99552.28
2022-08-03T08:25:54.074Z,99549.59
2022-08-03T08:28:32.542Z,99557.59
2022-08-03T08:31:01.398Z,99562.69
2022-08-03T08:33:37.653Z,99558.75
2022-08-03T08:36:15.938Z,99553.16
2022-08-03T08:38:44.665Z,99552.44
2022-08-03T08:41:13.282Z,99557.69
2022-08-03T08:43:40.684Z,99556.47
2022-08-03T08:46:08.623Z,99544.06
2022-08-03T08:48:40.517Z,99546.81
2022-08-03T08:51:08.625Z,99547.84
2022-08-03T08:53:38.431Z,99554.44
2022-08-03T08:56:08.125Z,99551.13
2022-08-03T08:58:40.903Z,99553.88
2022-08-03T09:01:08.547Z,99553.44
2022-08-03T09:03:35.509Z,99547.13
2022-08-03T09:06:03.446Z,99555.13
2022-08-03T09:08:32.645Z,99561.31
2022-08-03T09:11:00.187Z,99554.41
2022-08-03T09:13:27.423Z,99559.03
2022-08-03T09:16:14.308Z,99547.53
2022-08-03T09:18:46.596Z,99545.38
2022-08-03T09:21:31.160Z,99560.72
2022-08-03T09:24:02.921Z,99559.84
2022-08-03T09:26:33.951Z,99566.19
2022-08-03T09:29:14.333Z,99559.25
2022-08-03T09:31:46.872Z,99559.91
2022-08-03T09:34:17.767Z,99559.66
2022-08-03T09:36:46.877Z,99564.25
2022-08-03T09:39:19.761Z,99570.06
2022-08-03T09:42:14.774Z,99564.78
2022-08-03T09:44:45.138Z,99540.75
2022-08-03T09:47:16.702Z,99536.72
2022-08-03T09:50:06.710Z,99545.75
2022-08-03T09:52:49.141Z,99533.09
2022-08-03T09:55:23.655Z,99533.72
2022-08-03T09:58:09.642Z,99534.22
2022-08-03T10:00:54.230Z,99530.31
2022-08-03T10:03:24.380Z,99540.13
2022-08-03T10:05:53.017Z,99536.00
2022-08-03T10:08:23.782Z,99545.09
2022-08-03T10:10:55.681Z,99542.75
2022-08-03T10:13:23.559Z,99551.53
2022-08-03T10:16:24.078Z,99533.94
2022-08-03T10:18:40.187Z,99537.38
2022-08-03T10:21:10.711Z,99536.63
2022-08-03T10:23:38.896Z,99541.16
2022-08-03T10:26:07.987Z,99541.38
2022-08-03T10:28:41.569Z,99553.03
2022-08-03T10:31:13.197Z,99545.56
2022-08-03T10:33:51.532Z,99542.50
2022-08-03T10:36:24.764Z,99540.88
2022-08-03T10:38:53.443Z,99539.28
2022-08-03T10:41:21.274Z,99546.81
2022-08-03T10:43:59.247Z,99533.78
2022-08-03T10:46:27.661Z,99542.97
2022-08-03T10:48:56.772Z,99547.13
2022-08-03T10:51:24.197Z,99540.41
2022-08-03T10:53:55.383Z,99544.91
2022-08-03T10:56:53.465Z,99550.06
2022-08-03T10:59:59.508Z,99547.66
2022-08-03T11:03:01.504Z,99542.56
2022-08-03T11:05:30.417Z,99547.84
2022-08-03T11:08:32.324Z,99544.41
2022-08-03T11:11:28.580Z,99543.75
2022-08-03T11:14:03.310Z,99543.44
2022-08-03T11:16:36.560Z,99555.09
2022-08-03T11:19:06.186Z,99545.28
2022-08-03T11:21:51.151Z,99542.63
2022-08-03T11:24:36.873Z,99548.91
2022-08-03T11:27:20.030Z,99542.78
2022-08-03T11:30:02.212Z,99544.19
2022-08-03T11:32:38.334Z,99551.34
2022-08-03T11:35:16.454Z,99549.88
2022-08-03T11:38:03.123Z,99543.66
2022-08-03T11:40:49.264Z,99540.88
2022-08-03T11:43:22.178Z,99542.63
2022-08-03T11:46:01.442Z,99540.38
2022-08-03T11:48:33.999Z,99543.66
2022-08-03T11:51:02.022Z,99550.28
2022-08-03T11:53:31.358Z,99552.16
2022-08-03T11:56:05.299Z,99543.13
2022-08-03T11:59:16.469Z,99548.41
2022-08-03T12:01:35.511Z,99544.34
2022-08-03T12:04:06.252Z,99547.22
2022-08-03T12:06:55.180Z,99540.91
2022-08-03T12:09:22.130Z,99541.59
2022-08-03T12:12:00.757Z,99533.03
2022-08-03T12:14:48.576Z,99537.38
2022-08-03T12:17:18.716Z,99539.06
2022-08-03T12:19:45.825Z,99528.13
2022-08-03T12:22:17.163Z,99531.03
2022-08-03T12:24:46.934Z,99534.44
2022-08-03T12:27:25.306Z,99525.53
2022-08-03T12:29:59.018Z,99536.41
2022-08-03T12:32:27.372Z,99536.91
2022-08-03T12:34:55.673Z,99532.72
2022-08-03T12:37:23.820Z,99536.31
2022-08-03T12:40:02.489Z,99527.81
2022-08-03T12:42:35.640Z,99531.16
2022-08-03T12:45:23.601Z,99538.84
2022-08-03T12:47:59.580Z,99535.31
2022-08-03T12:50:31.333Z,99535.16
2022-08-03T12:53:00.199Z,99526.97
2022-08-03T12:55:57.802Z,99531.34
2022-08-03T12:58:35.652Z,99534.38
2022-08-03T13:01:09.758Z,99537.72
2022-08-03T13:03:45.731Z,99539.88
2022-08-03T13:06:22.818Z,99536.50
2022-08-03T13:08:51.331Z,99548.25
2022-08-03T13:11:19.270Z,99541.66
2022-08-03T13:13:46.487Z,99538.00
2022-08-03T13:16:18.753Z,99544.28
2022-08-03T13:18:47.231Z,99549.75
2022-08-03T13:21:16.453Z,99542.00
2022-08-03T13:23:43.990Z,99547.69
2022-08-03T13:26:12.050Z,99536.03
2022-08-03T13:28:40.045Z,99539.72
2022-08-03T13:31:07.347Z,99544.88
2022-08-03T13:33:35.642Z,99537.72
2022-08-03T13:36:02.505Z,99543.25
2022-08-03T13:38:29.414Z,99540.84
2022-08-03T13:40:56.432Z,99543.13
2022-08-03T13:43:23.479Z,99540.72
2022-08-03T13:45:54.842Z,99537.50
2022-08-03T13:48:35.874Z,99539.25
2022-08-03T13:51:22.244Z,99540.28
2022-08-03T13:53:52.344Z,99536.66
2022-08-03T13:56:19.215Z,99530.25
2022-08-03T13:58:46.115Z,99537.94
2022-08-03T14:01:13.116Z,99544.69
2022-08-03T14:03:39.985Z,99533.88
2022-08-03T14:06:07.021Z,99537.09
2022-08-03T14:08:33.917Z,99536.41
2022-08-03T14:11:00.847Z,99536.88
2022-08-03T14:13:27.692Z,99529.50
2022-08-03T14:15:55.704Z,99530.84
2022-08-03T14:18:27.682Z,99533.13
2022-08-03T14:21:02.003Z,99541.06
2022-08-03T14:23:32.586Z,99541.22
2022-08-03T14:25:59.849Z,99539.53
2022-08-03T14:28:26.781Z,99533.22
2022-08-03T14:30:56.018Z,99546.28
2022-08-03T14:33:23.513Z,99542.59
2022-08-03T14:35:51.855Z,99545.63
2022-08-03T14:38:19.106Z,99538.25
2022-08-03T14:40:46.506Z,99536.41
2022-08-03T14:43:13.906Z,99542.97
2022-08-03T14:45:43.140Z,99545.28
2022-08-03T14:50:31.467Z,99535.78
2022-08-03T14:50:57.289Z,99544.72
2022-08-03T14:53:24.509Z,99542.88
2022-08-03T14:55:53.051Z,99544.72
2022-08-03T14:58:22.049Z,99550.91
2022-08-03T15:00:50.440Z,99554.00
2022-08-03T15:03:20.553Z,99554.47
2022-08-03T15:05:47.636Z,99548.84
2022-08-03T15:08:14.419Z,99545.75
2022-08-03T15:10:44.758Z,99545.19
2022-08-03T15:13:15.802Z,99544.50
2022-08-03T15:15:42.650Z,99542.22
2022-08-03T15:18:09.696Z,99538.66
2022-08-03T15:20:45.473Z,99541.63
2022-08-03T15:23:15.038Z,99534.38
2022-08-03T15:26:29.355Z,99549.25
2022-08-03T15:28:30.015Z,99551.81
2022-08-03T15:30:57.066Z,99546.06
2022-08-03T15:33:23.881Z,99547.66
2022-08-03T15:35:50.767Z,99543.66
2022-08-03T15:38:17.835Z,99545.34
2022-08-03T15:40:44.903Z,99547.09
2022-08-03T15:43:11.838Z,99554.19
2022-08-03T15:45:38.741Z,99553.03
2022-08-03T15:48:07.150Z,99554.75
2022-08-03T15:50:34.257Z,99547.88
2022-08-03T15:53:01.256Z,99555.66
2022-08-03T15:55:28.373Z,99549.59
2022-08-03T15:59:10.092Z,99550.50
2022-08-03T16:00:43.201Z,99549.47
2022-08-03T16:03:10.626Z,99550.47
2022-08-03T16:05:39.824Z,99547.38
2022-08-03T16:08:11.668Z,99540.59
2022-08-03T16:10:41.203Z,99546.47
2022-08-03T16:13:16.287Z,99543.72
2022-08-03T16:15:43.242Z,99539.91
2022-08-03T16:18:10.033Z,99546.19
2022-08-03T16:20:36.905Z,99540.66
2022-08-03T16:23:10.361Z,99541.66
2022-08-03T16:25:41.278Z,99552.84
2022-08-03T16:28:14.843Z,99545.25
2022-08-03T16:30:45.236Z,99549.84
2022-08-03T16:33:16.753Z,99551.63
2022-08-03T16:35:46.199Z,99549.28
2022-08-03T16:38:18.361Z,99551.75
2022-08-03T16:40:51.990Z,99552.66
2022-08-03T16:43:21.220Z,99545.34
2022-08-03T16:45:48.870Z,99547.13
2022-08-03T16:48:16.834Z,99550.53
2022-08-03T16:50:44.715Z,99560.00
2022-08-03T16:53:16.363Z,99554.38
2022-08-03T16:55:52.054Z,99556.06
2022-08-03T16:58:41.254Z,99559.03
2022-08-03T17:01:22.038Z,99565.72
2022-08-03T17:04:01.252Z,99562.50
2022-08-03T17:06:34.235Z,99562.69
2022-08-03T17:09:08.433Z,99564.09
2022-08-03T17:11:37.795Z,99570.69
2022-08-03T17:14:09.522Z,99573.63
2022-08-03T17:16:38.354Z,99576.13
2022-08-03T17:19:07.498Z,99577.81
2022-08-03T17:21:39.508Z,99579.50
2022-08-03T17:24:19.727Z,99582.00
2022-08-03T17:26:49.872Z,99574.75
2022-08-03T17:29:25.256Z,99587.06
2022-08-03T17:31:56.664Z,99592.03
2022-08-03T17:34:26.299Z,99599.38
2022-08-03T17:37:27.283Z,99593.66
2022-08-03T17:39:59.854Z,99597.75
2022-08-03T17:42:38.813Z,99599.53
2022-08-03T17:45:07.281Z,99604.16
2022-08-03T17:47:42.133Z,99597.41
2022-08-03T17:53:23.609Z,99599.97
2022-08-03T17:56:38.762Z,99599.25
2022-08-03T17:59:08.595Z,99610.75
2022-08-03T18:02:25.167Z,99607.25
2022-08-03T18:05:15.987Z,99601.44
2022-08-03T18:07:59.290Z,99615.81
2022-08-03T18:10:34.315Z,99617.06
2022-08-03T18:13:10.551Z,99618.22
2022-08-03T18:15:45.181Z,99623.22
2022-08-03T18:18:16.050Z,99635.19
2022-08-03T18:20:57.028Z,99639.22
2022-08-03T18:23:36.686Z,99638.63
2022-08-03T18:26:07.539Z,99644.72
2022-08-03T18:28:39.164Z,99647.19
2022-08-03T18:31:07.569Z,99652.03
2022-08-03T18:34:32.145Z,99662.56
2022-08-03T18:36:29.583Z,99663.38
2022-08-03T18:38:59.353Z,99664.13
2022-08-03T18:41:32.172Z,99663.31
2022-08-03T18:44:37.762Z,99660.97
2022-08-03T18:47:16.502Z,99666.69
2022-08-03T18:50:08.959Z,99669.09
2022-08-03T18:53:05.116Z,99681.38
2022-08-03T18:56:04.185Z,99681.09
2022-08-03T18:59:02.530Z,99678.72
2022-08-03T19:01:59.952Z,99678.44
2022-08-03T19:07:27.538Z,99683.56
2022-08-03T19:10:09.467Z,99685.28
2022-08-03T19:12:45.341Z,99682.94
2022-08-03T19:15:15.809Z,99672.44
2022-08-03T19:17:53.252Z,99678.19
2022-08-03T19:20:31.276Z,99682.31
2022-08-03T19:22:59.682Z,99686.91
2022-08-03T19:25:35.159Z,99685.00
2022-08-03T19:28:06.191Z,99687.06
2022-08-03T19:30:40.272Z,99681.81
2022-08-03T19:33:13.153Z,99685.19
2022-08-03T19:35:55.066Z,99686.50
2022-08-03T19:38:29.145Z,99680.03
2022-08-03T19:41:01.003Z,99682.94
2022-08-03T19:43:49.444Z,99681.31
2022-08-03T19:46:30.315Z,99683.88
2022-08-03T19:49:14.795Z,99680.69
2022-08-03T19:52:01.771Z,99679.09
2022-08-03T19:54:52.804Z,99683.22
2022-08-03T19:57:24.150Z,99683.69
2022-08-03T19:59:53.383Z,99680.09
2022-08-03T20:02:26.908Z,99690.28
2022-08-03T20:04:56.240Z,99684.66
2022-08-03T20:07:24.311Z,99684.69
2022-08-03T20:09:56.155Z,99685.09
2022-08-03T20:12:29.014Z,99680.25
2022-08-03T20:14:59.967Z,99683.53
2022-08-03T20:17:54.778Z,99682.78
2022-08-03T20:20:20.051Z,99684.44
2022-08-03T20:22:53.310Z,99686.13
2022-08-03T20:25:38.310Z,99696.28
2022-08-03T20:28:22.905Z,99695.91
2022-08-03T20:30:55.183Z,99700.44
2022-08-03T20:33:27.829Z,99705.38
2022-08-03T20:36:10.400Z,99705.84
2022-08-03T20:38:43.579Z,99715.22
2022-08-03T20:41:10.807Z,99701.84
2022-08-03T20:43:37.741Z,99715.69
2022-08-03T20:46:31.114Z,99721.38
2022-08-03T20:48:52.840Z,99713.28
2022-08-03T20:51:49.836Z,99715.72
2022-08-03T20:54:20.882Z,99719.41
2022-08-03T20:56:54.731Z,99723.09
2022-08-03T20:59:24.292Z,99723.94
2022-08-03T21:01:51.099Z,99724.88
2022-08-03T21:07:16.297Z,99736.25
2022-08-03T21:09:57.115Z,99731.84
2022-08-03T21:12:39.829Z,99733.09
2022-08-03T21:13:01.260Z,99685.06
2022-08-03T21:13:05.401Z,99601.16
2022-08-03T21:13:07.969Z,99735.00
2022-08-03T21:15:09.666Z,99731.91
2022-08-03T21:17:58.942Z,99733.94
2022-08-03T21:20:30.841Z,99739.63
2022-08-03T21:22:59.428Z,99738.41
2022-08-03T21:25:32.310Z,99733.56
2022-08-03T21:28:00.517Z,99736.03
2022-08-03T21:30:29.911Z,99735.22
2022-08-03T21:32:58.461Z,99734.03
2022-08-03T21:35:25.881Z,99728.38
2022-08-03T21:38:12.452Z,99730.81
2022-08-03T21:40:40.993Z,99736.50
2022-08-03T21:43:08.538Z,99733.28
2022-08-03T21:45:47.519Z,99733.72
2022-08-03T21:48:15.665Z,99737.38
2022-08-03T21:50:44.003Z,99736.16
2022-08-03T21:53:11.925Z,99736.16
2022-08-03T21:55:40.233Z,99739.00
2022-08-03T21:58:08.033Z,99741.00
2022-08-03T22:00:35.202Z,99738.16
2022-08-03T22:03:15.159Z,99745.03
2022-08-03T22:05:44.325Z,99736.50
2022-08-03T22:08:14.294Z,99745.84
2022-08-03T22:10:44.578Z,99740.16
2022-08-03T22:13:19.547Z,99738.16
2022-08-03T22:16:05.823Z,99744.69
2022-08-03T22:18:35.997Z,99743.06
2022-08-03T22:21:04.173Z,99748.72
2022-08-03T22:23:31.827Z,99742.66
2022-08-03T22:26:03.530Z,99756.88
2022-08-03T22:28:31.061Z,99751.59
2022-08-03T22:31:00.494Z,99745.91
2022-08-03T22:33:48.577Z,99756.09
2022-08-03T22:36:18.971Z,99751.25
2022-08-03T22:38:50.827Z,99756.16
2022-08-03T22:41:18.923Z,99769.19
2022-08-03T22:43:45.981Z,99761.91
2022-08-03T22:46:18.688Z,99761.91
2022-08-03T22:48:47.225Z,99756.25
2022-08-03T22:51:15.809Z,99762.75
2022-08-03T22:53:47.311Z,99764.41
2022-08-03T22:56:14.734Z,99766.47
2022-08-03T22:58:41.563Z,99770.97
2022-08-03T23:01:11.949Z,99767.78
2022-08-03T23:04:00.661Z,99762.91
2022-08-03T23:06:35.661Z,99771.03
2022-08-03T23:09:13.604Z,99769.03
2022-08-03T23:11:45.189Z,99772.28
2022-08-03T23:14:15.451Z,99773.13
2022-08-03T23:16:43.164Z,99772.38
2022-08-03T23:19:16.667Z,99774.41
2022-08-03T23:22:00.259Z,99780.91
2022-08-03T23:24:30.432Z,99780.09
2022-08-03T23:26:59.238Z,99776.88
2022-08-03T23:29:29.513Z,99781.75
2022-08-03T23:31:57.915Z,99788.25
2022-08-03T23:34:43.746Z,99789.06
2022-08-03T23:37:14.068Z,99787.44
2022-08-03T23:39:44.855Z,99782.59
2022-08-03T23:42:15.184Z,99780.94
2022-08-03T23:44:43.880Z,99785.81
2022-08-03T23:47:14.483Z,99789.88
2022-08-03T23:49:41.361Z,99794.72
2022-08-03T23:52:45.490Z,99787.41
2022-08-03T23:55:21.130Z,99797.97
2022-08-03T23:58:32.304Z,99792.28
